SAS255 EGLL-ENGM
Flight info
| Callsign | SAS255 |
|---|---|
| Flight time | 1h 38m |
| Altitude | 37000 |
| Route | BPK Q295 MATCH P144 SAMHO DCT LARGA DCT INBOB M604 DANKO DCT PIPEX DCT ULMUG DCT RIPAM |
| Aircraft | A320/M-SDE3FGHIRWY/LB1 |
Departure
| Time | 2026-05-08 06:18 |
|---|---|
| Airport | London Heathrow Airport (EGLL) |
Arrival
| Time | 2026-05-08 07:56 |
|---|---|
| Airport | Oslo-Gardermoen International Airport (ENGM) |
| Time | Latitude | Longitude | Altitude | Speed | Heading |
|---|---|---|---|---|---|
| 2026-05-08 05:42 | 51.46827 | -0.45112 | 86 ft | 0 kts | 359° |
| 2026-05-08 06:06 | 51.46815 | -0.45112 | 88 ft | 4 kts | 359° |
| 2026-05-08 06:06 | 51.46791 | -0.45111 | 86 ft | 2 kts | 359° |
| 2026-05-08 06:06 | 51.46767 | -0.45105 | 86 ft | 4 kts | 324° |
| 2026-05-08 06:06 | 51.46753 | -0.45074 | 87 ft | 4 kts | 280° |
| 2026-05-08 06:07 | 51.46751 | -0.45033 | 86 ft | 3 kts | 269° |
| 2026-05-08 06:07 | 51.46751 | -0.45004 | 86 ft | 0 kts | 269° |
| 2026-05-08 06:10 | 51.46751 | -0.45023 | 86 ft | 7 kts | 269° |
| 2026-05-08 06:10 | 51.46751 | -0.45102 | 86 ft | 7 kts | 270° |
| 2026-05-08 06:11 | 51.46751 | -0.45169 | 86 ft | 5 kts | 270° |
| 2026-05-08 06:11 | 51.46750 | -0.45222 | 86 ft | 4 kts | 269° |
| 2026-05-08 06:11 | 51.46750 | -0.45306 | 86 ft | 13 kts | 270° |
| 2026-05-08 06:11 | 51.46748 | -0.45515 | 86 ft | 23 kts | 271° |
| 2026-05-08 06:12 | 51.46749 | -0.45774 | 86 ft | 24 kts | 270° |
| 2026-05-08 06:12 | 51.46748 | -0.46045 | 86 ft | 25 kts | 270° |
| 2026-05-08 06:12 | 51.46748 | -0.46272 | 86 ft | 19 kts | 270° |
| 2026-05-08 06:12 | 51.46748 | -0.46481 | 86 ft | 19 kts | 270° |
| 2026-05-08 06:13 | 51.46748 | -0.46692 | 86 ft | 19 kts | 269° |
| 2026-05-08 06:13 | 51.46747 | -0.46901 | 90 ft | 18 kts | 270° |
| 2026-05-08 06:13 | 51.46747 | -0.47100 | 90 ft | 17 kts | 270° |
| 2026-05-08 06:13 | 51.46746 | -0.47289 | 86 ft | 16 kts | 270° |
| 2026-05-08 06:14 | 51.46746 | -0.47459 | 86 ft | 14 kts | 270° |
| 2026-05-08 06:14 | 51.46745 | -0.47638 | 86 ft | 18 kts | 269° |
| 2026-05-08 06:14 | 51.46744 | -0.47865 | 86 ft | 22 kts | 269° |
| 2026-05-08 06:14 | 51.46743 | -0.48108 | 86 ft | 19 kts | 270° |
| 2026-05-08 06:15 | 51.46710 | -0.48210 | 86 ft | 9 kts | 183° |
| 2026-05-08 06:15 | 51.46652 | -0.48213 | 86 ft | 8 kts | 179° |
| 2026-05-08 06:15 | 51.46584 | -0.48213 | 87 ft | 12 kts | 180° |
| 2026-05-08 06:15 | 51.46500 | -0.48209 | 88 ft | 10 kts | 170° |
| 2026-05-08 06:16 | 51.46471 | -0.48187 | 88 ft | 5 kts | 131° |
| 2026-05-08 06:16 | 51.46480 | -0.48118 | 88 ft | 2 kts | 86° |
| 2026-05-08 06:16 | 51.46480 | -0.48117 | 88 ft | 0 kts | 86° |
| 2026-05-08 06:16 | 51.46480 | -0.48111 | 87 ft | 0 kts | 86° |
| 2026-05-08 06:17 | 51.46484 | -0.47648 | 88 ft | 76 kts | 90° |
| 2026-05-08 06:17 | 51.46485 | -0.46471 | 90 ft | 132 kts | 89° |
| 2026-05-08 06:17 | 51.46492 | -0.44751 | 174 ft | 168 kts | 90° |
| 2026-05-08 06:18 | 51.46489 | -0.42963 | 960 ft | 160 kts | 90° |
| 2026-05-08 06:18 | 51.46632 | -0.41178 | 1626 ft | 166 kts | 70° |
| 2026-05-08 06:18 | 51.47296 | -0.39583 | 2127 ft | 183 kts | 52° |
| 2026-05-08 06:18 | 51.48179 | -0.37939 | 2427 ft | 206 kts | 52° |
| 2026-05-08 06:19 | 51.49154 | -0.36096 | 2701 ft | 229 kts | 52° |
| 2026-05-08 06:19 | 51.50237 | -0.34036 | 3116 ft | 253 kts | 52° |
| 2026-05-08 06:19 | 51.51381 | -0.31852 | 3827 ft | 263 kts | 51° |
| 2026-05-08 06:19 | 51.52407 | -0.29417 | 4690 ft | 266 kts | 69° |
| 2026-05-08 06:20 | 51.53039 | -0.26620 | 5548 ft | 268 kts | 72° |
| 2026-05-08 06:20 | 51.53712 | -0.23810 | 6446 ft | 273 kts | 63° |
| 2026-05-08 06:20 | 51.54878 | -0.21375 | 7232 ft | 280 kts | 42° |
| 2026-05-08 06:20 | 51.56541 | -0.19722 | 8003 ft | 285 kts | 21° |
| 2026-05-08 06:21 | 51.58405 | -0.18565 | 8840 ft | 289 kts | 21° |
| 2026-05-08 06:21 | 51.60322 | -0.17531 | 9646 ft | 293 kts | 15° |
| 2026-05-08 06:21 | 51.62288 | -0.16584 | 10387 ft | 299 kts | 14° |
| 2026-05-08 06:21 | 51.64363 | -0.15601 | 10635 ft | 322 kts | 14° |
| 2026-05-08 06:22 | 51.66565 | -0.14569 | 10845 ft | 345 kts | 14° |
| 2026-05-08 06:22 | 51.68912 | -0.13470 | 11321 ft | 356 kts | 16° |
| 2026-05-08 06:22 | 51.71192 | -0.11824 | 11961 ft | 363 kts | 31° |
| 2026-05-08 06:22 | 51.73167 | -0.09255 | 12636 ft | 368 kts | 46° |
| 2026-05-08 06:23 | 51.74693 | -0.05924 | 13319 ft | 372 kts | 62° |
| 2026-05-08 06:23 | 51.75652 | -0.02040 | 13986 ft | 375 kts | 77° |
| 2026-05-08 06:23 | 51.76068 | 0.02109 | 14624 ft | 376 kts | 83° |
| 2026-05-08 06:23 | 51.76411 | 0.06297 | 15276 ft | 378 kts | 84° |
| 2026-05-08 06:24 | 51.76746 | 0.10467 | 15888 ft | 381 kts | 84° |
| 2026-05-08 06:24 | 51.77087 | 0.14721 | 16504 ft | 384 kts | 84° |
| 2026-05-08 06:24 | 51.77528 | 0.18990 | 17092 ft | 388 kts | 77° |
| 2026-05-08 06:24 | 51.78390 | 0.23138 | 17664 ft | 393 kts | 68° |
| 2026-05-08 06:25 | 51.79708 | 0.27032 | 18231 ft | 398 kts | 57° |
| 2026-05-08 06:25 | 51.81465 | 0.30522 | 18731 ft | 403 kts | 46° |
| 2026-05-08 06:25 | 51.83482 | 0.33690 | 19191 ft | 406 kts | 44° |
| 2026-05-08 06:25 | 51.85520 | 0.36876 | 19690 ft | 409 kts | 44° |
| 2026-05-08 06:26 | 51.87572 | 0.40090 | 20188 ft | 412 kts | 44° |
| 2026-05-08 06:26 | 51.89635 | 0.43325 | 20685 ft | 414 kts | 44° |
| 2026-05-08 06:26 | 51.91678 | 0.46537 | 21162 ft | 416 kts | 44° |
| 2026-05-08 06:26 | 51.93760 | 0.49816 | 21629 ft | 419 kts | 44° |
| 2026-05-08 06:27 | 51.95855 | 0.53118 | 22093 ft | 421 kts | 44° |
| 2026-05-08 06:27 | 51.97960 | 0.56447 | 22554 ft | 424 kts | 44° |
| 2026-05-08 06:27 | 52.00076 | 0.59802 | 23009 ft | 427 kts | 44° |
| 2026-05-08 06:27 | 52.02234 | 0.63131 | 23437 ft | 429 kts | 40° |
| 2026-05-08 06:28 | 52.04632 | 0.66038 | 23832 ft | 432 kts | 34° |
| 2026-05-08 06:28 | 52.07103 | 0.68845 | 24174 ft | 435 kts | 34° |
| 2026-05-08 06:28 | 52.09553 | 0.71634 | 24538 ft | 437 kts | 34° |
| 2026-05-08 06:28 | 52.12046 | 0.74481 | 24887 ft | 439 kts | 35° |
| 2026-05-08 06:29 | 52.14551 | 0.77350 | 25236 ft | 441 kts | 35° |
| 2026-05-08 06:29 | 52.17066 | 0.80233 | 25584 ft | 444 kts | 35° |
| 2026-05-08 06:29 | 52.19595 | 0.83140 | 25923 ft | 446 kts | 35° |
| 2026-05-08 06:29 | 52.22135 | 0.86069 | 26254 ft | 448 kts | 35° |
| 2026-05-08 06:30 | 52.24683 | 0.89014 | 26596 ft | 450 kts | 35° |
| 2026-05-08 06:30 | 52.27246 | 0.91978 | 26927 ft | 453 kts | 35° |
| 2026-05-08 06:30 | 52.29784 | 0.94914 | 27246 ft | 455 kts | 34° |
| 2026-05-08 06:30 | 52.32375 | 0.97909 | 27576 ft | 457 kts | 34° |
| 2026-05-08 06:31 | 52.34975 | 1.00919 | 27872 ft | 459 kts | 34° |
| 2026-05-08 06:31 | 52.37588 | 1.03950 | 28177 ft | 461 kts | 34° |
| 2026-05-08 06:31 | 52.40208 | 1.06997 | 28480 ft | 463 kts | 34° |
| 2026-05-08 06:31 | 52.42837 | 1.10059 | 28765 ft | 465 kts | 34° |
| 2026-05-08 06:32 | 52.45480 | 1.13139 | 29048 ft | 467 kts | 34° |
| 2026-05-08 06:32 | 52.48133 | 1.16235 | 29326 ft | 469 kts | 34° |
| 2026-05-08 06:32 | 52.50758 | 1.19301 | 29595 ft | 471 kts | 34° |
| 2026-05-08 06:32 | 52.53430 | 1.22427 | 29882 ft | 472 kts | 34° |
| 2026-05-08 06:33 | 52.56102 | 1.25564 | 30248 ft | 472 kts | 34° |
| 2026-05-08 06:33 | 52.58770 | 1.28703 | 30583 ft | 471 kts | 34° |
| 2026-05-08 06:33 | 52.61429 | 1.31831 | 30911 ft | 470 kts | 34° |
| 2026-05-08 06:33 | 52.64086 | 1.34963 | 31236 ft | 469 kts | 34° |
| 2026-05-08 06:34 | 52.66736 | 1.38093 | 31558 ft | 469 kts | 34° |
| 2026-05-08 06:34 | 52.69384 | 1.41224 | 31883 ft | 468 kts | 34° |
| 2026-05-08 06:34 | 52.72030 | 1.44354 | 32210 ft | 467 kts | 34° |
| 2026-05-08 06:34 | 52.74670 | 1.47478 | 32559 ft | 467 kts | 34° |
| 2026-05-08 06:35 | 52.77268 | 1.50562 | 32884 ft | 466 kts | 35° |
| 2026-05-08 06:35 | 52.79900 | 1.53695 | 33202 ft | 466 kts | 35° |
| 2026-05-08 06:35 | 52.82526 | 1.56825 | 33495 ft | 465 kts | 35° |
| 2026-05-08 06:35 | 52.85150 | 1.59958 | 33812 ft | 465 kts | 35° |
| 2026-05-08 06:36 | 52.87773 | 1.63093 | 34126 ft | 464 kts | 35° |
| 2026-05-08 06:36 | 52.90388 | 1.66223 | 34391 ft | 464 kts | 35° |
| 2026-05-08 06:36 | 52.93002 | 1.69356 | 34640 ft | 464 kts | 35° |
| 2026-05-08 06:36 | 52.95616 | 1.72492 | 34875 ft | 464 kts | 35° |
| 2026-05-08 06:37 | 52.98196 | 1.75596 | 35101 ft | 464 kts | 35° |
| 2026-05-08 06:37 | 53.00811 | 1.78742 | 35350 ft | 465 kts | 35° |
| 2026-05-08 06:37 | 53.03333 | 1.81778 | 35537 ft | 465 kts | 35° |
| 2026-05-08 06:37 | 53.05952 | 1.84933 | 35743 ft | 465 kts | 35° |
| 2026-05-08 06:38 | 53.08569 | 1.88095 | 35943 ft | 465 kts | 35° |
| 2026-05-08 06:38 | 53.11185 | 1.91268 | 36150 ft | 466 kts | 35° |
| 2026-05-08 06:38 | 53.13803 | 1.94444 | 36345 ft | 466 kts | 35° |
| 2026-05-08 06:38 | 53.16424 | 1.97626 | 36537 ft | 466 kts | 35° |
| 2026-05-08 06:39 | 53.19042 | 2.00809 | 36727 ft | 466 kts | 35° |
| 2026-05-08 06:39 | 53.21622 | 2.03963 | 36907 ft | 466 kts | 35° |
| 2026-05-08 06:39 | 53.24238 | 2.07164 | 37096 ft | 467 kts | 35° |
| 2026-05-08 06:39 | 53.26867 | 2.10362 | 37141 ft | 468 kts | 34° |
| 2026-05-08 06:40 | 53.32230 | 2.16534 | 37136 ft | 468 kts | 32° |
| 2026-05-08 06:40 | 53.37655 | 2.22568 | 37136 ft | 468 kts | 32° |
| 2026-05-08 06:41 | 53.43058 | 2.28660 | 37141 ft | 468 kts | 33° |
| 2026-05-08 06:41 | 53.48400 | 2.34793 | 37140 ft | 468 kts | 33° |
| 2026-05-08 06:42 | 53.53673 | 2.41224 | 37139 ft | 469 kts | 36° |
| 2026-05-08 06:42 | 53.58853 | 2.47886 | 37139 ft | 469 kts | 36° |
| 2026-05-08 06:43 | 53.64037 | 2.54556 | 37139 ft | 469 kts | 36° |
| 2026-05-08 06:43 | 53.69211 | 2.61114 | 37128 ft | 469 kts | 36° |
| 2026-05-08 06:44 | 53.74429 | 2.67711 | 37147 ft | 468 kts | 36° |
| 2026-05-08 06:44 | 53.79638 | 2.74336 | 37143 ft | 468 kts | 36° |
| 2026-05-08 06:45 | 53.84832 | 2.80992 | 37141 ft | 468 kts | 36° |
| 2026-05-08 06:45 | 53.89989 | 2.87626 | 37141 ft | 468 kts | 36° |
| 2026-05-08 06:46 | 53.95176 | 2.94307 | 37151 ft | 468 kts | 36° |
| 2026-05-08 06:46 | 54.00373 | 3.00999 | 37156 ft | 468 kts | 36° |
| 2026-05-08 06:47 | 54.05559 | 3.07705 | 37156 ft | 469 kts | 36° |
| 2026-05-08 06:47 | 54.10738 | 3.14449 | 37155 ft | 469 kts | 36° |
| 2026-05-08 06:48 | 54.15883 | 3.21151 | 37152 ft | 468 kts | 36° |
| 2026-05-08 06:48 | 54.21057 | 3.27915 | 37170 ft | 468 kts | 36° |
| 2026-05-08 06:49 | 54.26224 | 3.34701 | 37164 ft | 468 kts | 36° |
| 2026-05-08 06:49 | 54.31386 | 3.41517 | 37165 ft | 468 kts | 36° |
| 2026-05-08 06:50 | 54.36513 | 3.48285 | 37164 ft | 468 kts | 36° |
| 2026-05-08 06:50 | 54.41673 | 3.55106 | 37163 ft | 468 kts | 37° |
| 2026-05-08 06:51 | 54.46822 | 3.61961 | 37174 ft | 468 kts | 37° |
| 2026-05-08 06:51 | 54.51966 | 3.68843 | 37174 ft | 468 kts | 37° |
| 2026-05-08 06:52 | 54.57077 | 3.75684 | 37172 ft | 468 kts | 37° |
| 2026-05-08 06:52 | 54.62220 | 3.82573 | 37164 ft | 468 kts | 37° |
| 2026-05-08 06:53 | 54.67362 | 3.89492 | 37165 ft | 468 kts | 37° |
| 2026-05-08 06:53 | 54.71621 | 3.95266 | 37175 ft | 468 kts | 37° |
| 2026-05-08 06:54 | 54.77584 | 4.03355 | 37170 ft | 468 kts | 37° |
| 2026-05-08 06:54 | 54.82710 | 4.10328 | 37170 ft | 468 kts | 37° |
| 2026-05-08 06:55 | 54.87933 | 4.17077 | 37172 ft | 468 kts | 32° |
| 2026-05-08 06:55 | 54.92485 | 4.22147 | 37174 ft | 468 kts | 32° |
| 2026-05-08 06:56 | 54.97961 | 4.28265 | 37182 ft | 468 kts | 32° |
| 2026-05-08 06:56 | 55.03428 | 4.34419 | 37181 ft | 468 kts | 32° |
| 2026-05-08 06:57 | 55.08903 | 4.40575 | 37168 ft | 468 kts | 32° |
| 2026-05-08 06:57 | 55.14276 | 4.46631 | 37173 ft | 468 kts | 32° |
| 2026-05-08 06:58 | 55.19734 | 4.52840 | 37183 ft | 468 kts | 33° |
| 2026-05-08 06:58 | 55.25191 | 4.59070 | 37181 ft | 468 kts | 33° |
| 2026-05-08 06:59 | 55.30653 | 4.65308 | 37186 ft | 468 kts | 33° |
| 2026-05-08 06:59 | 55.36114 | 4.71556 | 37187 ft | 468 kts | 33° |
| 2026-05-08 07:00 | 55.41571 | 4.77814 | 37189 ft | 468 kts | 33° |
| 2026-05-08 07:00 | 55.46983 | 4.84073 | 37192 ft | 469 kts | 33° |
| 2026-05-08 07:01 | 55.52433 | 4.90390 | 37191 ft | 469 kts | 33° |
| 2026-05-08 07:01 | 55.57885 | 4.96723 | 37194 ft | 469 kts | 33° |
| 2026-05-08 07:02 | 55.63333 | 5.03063 | 37195 ft | 469 kts | 33° |
| 2026-05-08 07:02 | 55.68739 | 5.09397 | 37206 ft | 469 kts | 34° |
| 2026-05-08 07:03 | 55.74179 | 5.15777 | 37203 ft | 469 kts | 34° |
| 2026-05-08 07:03 | 55.79623 | 5.22176 | 37205 ft | 469 kts | 34° |
| 2026-05-08 07:04 | 55.85056 | 5.28605 | 37205 ft | 469 kts | 34° |
| 2026-05-08 07:04 | 55.90490 | 5.35050 | 37204 ft | 469 kts | 34° |
| 2026-05-08 07:05 | 55.95883 | 5.41462 | 37204 ft | 469 kts | 34° |
| 2026-05-08 07:05 | 56.01318 | 5.47940 | 37207 ft | 469 kts | 34° |
| 2026-05-08 07:06 | 56.06740 | 5.54448 | 37208 ft | 469 kts | 34° |
| 2026-05-08 07:06 | 56.12160 | 5.60967 | 37209 ft | 469 kts | 34° |
| 2026-05-08 07:07 | 56.17547 | 5.67450 | 37216 ft | 469 kts | 34° |
| 2026-05-08 07:07 | 56.22962 | 5.73998 | 37201 ft | 469 kts | 35° |
| 2026-05-08 07:08 | 56.28370 | 5.80575 | 37208 ft | 469 kts | 35° |
| 2026-05-08 07:08 | 56.33776 | 5.87166 | 37211 ft | 469 kts | 35° |
| 2026-05-08 07:09 | 56.39145 | 5.93736 | 37219 ft | 469 kts | 35° |
| 2026-05-08 07:09 | 56.44544 | 6.00358 | 37223 ft | 469 kts | 35° |
| 2026-05-08 07:10 | 56.49946 | 6.07004 | 37216 ft | 470 kts | 35° |
| 2026-05-08 07:10 | 56.55345 | 6.13661 | 37214 ft | 470 kts | 35° |
| 2026-05-08 07:11 | 56.60749 | 6.20351 | 37220 ft | 470 kts | 35° |
| 2026-05-08 07:11 | 56.66141 | 6.27071 | 37220 ft | 470 kts | 36° |
| 2026-05-08 07:12 | 56.71500 | 6.33773 | 37226 ft | 471 kts | 36° |
| 2026-05-08 07:12 | 56.76893 | 6.40540 | 37222 ft | 471 kts | 36° |
| 2026-05-08 07:13 | 56.82288 | 6.47323 | 37211 ft | 471 kts | 36° |
| 2026-05-08 07:13 | 56.87678 | 6.54130 | 37220 ft | 471 kts | 36° |
| 2026-05-08 07:14 | 56.93029 | 6.60908 | 37230 ft | 471 kts | 36° |
| 2026-05-08 07:14 | 56.98410 | 6.67753 | 37231 ft | 471 kts | 36° |
| 2026-05-08 07:15 | 57.03824 | 6.74525 | 37232 ft | 471 kts | 34° |
| 2026-05-08 07:15 | 57.09340 | 6.81052 | 37236 ft | 472 kts | 33° |
| 2026-05-08 07:16 | 57.14829 | 6.87519 | 37237 ft | 472 kts | 34° |
| 2026-05-08 07:16 | 57.20330 | 6.94108 | 37247 ft | 472 kts | 34° |
| 2026-05-08 07:17 | 57.25820 | 7.00761 | 37234 ft | 472 kts | 34° |
| 2026-05-08 07:17 | 57.31297 | 7.07447 | 37231 ft | 472 kts | 34° |
| 2026-05-08 07:18 | 57.36744 | 7.14107 | 37233 ft | 472 kts | 34° |
| 2026-05-08 07:18 | 57.42233 | 7.20814 | 37224 ft | 472 kts | 34° |
| 2026-05-08 07:19 | 57.47718 | 7.27537 | 37238 ft | 472 kts | 34° |
| 2026-05-08 07:19 | 57.53195 | 7.34279 | 37238 ft | 472 kts | 34° |
| 2026-05-08 07:20 | 57.58627 | 7.41004 | 37239 ft | 472 kts | 34° |
| 2026-05-08 07:20 | 57.64101 | 7.47797 | 37241 ft | 472 kts | 34° |
| 2026-05-08 07:21 | 57.69569 | 7.54607 | 37247 ft | 472 kts | 34° |
| 2026-05-08 07:21 | 57.75038 | 7.61447 | 37247 ft | 473 kts | 34° |
| 2026-05-08 07:22 | 57.80464 | 7.68263 | 37251 ft | 473 kts | 34° |
| 2026-05-08 07:22 | 57.85928 | 7.75144 | 37250 ft | 473 kts | 34° |
| 2026-05-08 07:23 | 57.91386 | 7.82059 | 37250 ft | 473 kts | 34° |
| 2026-05-08 07:23 | 57.96844 | 7.88992 | 37252 ft | 473 kts | 34° |
| 2026-05-08 07:24 | 58.02266 | 7.95888 | 37251 ft | 474 kts | 34° |
| 2026-05-08 07:24 | 58.07729 | 8.02853 | 37242 ft | 473 kts | 34° |
| 2026-05-08 07:25 | 58.13172 | 8.09847 | 37252 ft | 473 kts | 34° |
| 2026-05-08 07:26 | 58.21297 | 8.20336 | 37255 ft | 473 kts | 34° |
| 2026-05-08 07:26 | 58.26734 | 8.27361 | 37256 ft | 473 kts | 34° |
| 2026-05-08 07:27 | 58.32167 | 8.34430 | 37254 ft | 473 kts | 34° |
| 2026-05-08 07:27 | 58.37588 | 8.41523 | 37253 ft | 473 kts | 35° |
| 2026-05-08 07:28 | 58.42974 | 8.48585 | 37258 ft | 473 kts | 34° |
| 2026-05-08 07:28 | 58.48396 | 8.55698 | 37258 ft | 473 kts | 35° |
| 2026-05-08 07:29 | 58.53811 | 8.62855 | 37257 ft | 473 kts | 35° |
| 2026-05-08 07:29 | 58.59221 | 8.70020 | 37258 ft | 473 kts | 35° |
| 2026-05-08 07:30 | 58.64594 | 8.77162 | 37254 ft | 473 kts | 35° |
| 2026-05-08 07:30 | 58.69929 | 8.84290 | 37249 ft | 472 kts | 35° |
| 2026-05-08 07:31 | 58.75316 | 8.91522 | 37256 ft | 472 kts | 35° |
| 2026-05-08 07:31 | 58.80694 | 8.98763 | 37255 ft | 472 kts | 35° |
| 2026-05-08 07:32 | 58.86018 | 9.06017 | 37054 ft | 472 kts | 37° |
| 2026-05-08 07:32 | 58.88638 | 9.09850 | 36784 ft | 472 kts | 38° |
| 2026-05-08 07:32 | 58.91203 | 9.13798 | 36530 ft | 471 kts | 40° |
| 2026-05-08 07:32 | 58.93740 | 9.17820 | 36272 ft | 471 kts | 40° |
| 2026-05-08 07:33 | 58.96270 | 9.21862 | 36013 ft | 472 kts | 40° |
| 2026-05-08 07:33 | 58.98808 | 9.25885 | 35770 ft | 472 kts | 40° |
| 2026-05-08 07:33 | 59.01366 | 9.29894 | 35516 ft | 473 kts | 39° |
| 2026-05-08 07:33 | 59.03940 | 9.33890 | 35138 ft | 475 kts | 39° |
| 2026-05-08 07:34 | 59.06540 | 9.37906 | 34199 ft | 481 kts | 39° |
| 2026-05-08 07:34 | 59.09135 | 9.41906 | 33215 ft | 484 kts | 39° |
| 2026-05-08 07:34 | 59.11783 | 9.46004 | 32227 ft | 488 kts | 39° |
| 2026-05-08 07:34 | 59.14436 | 9.50143 | 31257 ft | 490 kts | 39° |
| 2026-05-08 07:35 | 59.17102 | 9.54319 | 30388 ft | 491 kts | 39° |
| 2026-05-08 07:35 | 59.19808 | 9.58293 | 29730 ft | 484 kts | 34° |
| 2026-05-08 07:35 | 59.22607 | 9.61886 | 29059 ft | 478 kts | 33° |
| 2026-05-08 07:35 | 59.25357 | 9.65410 | 28720 ft | 466 kts | 33° |
| 2026-05-08 07:36 | 59.28017 | 9.68827 | 28570 ft | 450 kts | 33° |
| 2026-05-08 07:36 | 59.30552 | 9.72098 | 28421 ft | 436 kts | 33° |
| 2026-05-08 07:36 | 59.33162 | 9.74906 | 28280 ft | 421 kts | 22° |
| 2026-05-08 07:36 | 59.35877 | 9.76737 | 27993 ft | 405 kts | 15° |
| 2026-05-08 07:37 | 59.38560 | 9.78236 | 27246 ft | 398 kts | 14° |
| 2026-05-08 07:37 | 59.41199 | 9.79689 | 26613 ft | 392 kts | 14° |
| 2026-05-08 07:37 | 59.43820 | 9.81125 | 26117 ft | 390 kts | 14° |
| 2026-05-08 07:37 | 59.46431 | 9.82563 | 25608 ft | 389 kts | 14° |
| 2026-05-08 07:38 | 59.49020 | 9.84007 | 25169 ft | 387 kts | 14° |
| 2026-05-08 07:38 | 59.51569 | 9.85436 | 24765 ft | 383 kts | 14° |
| 2026-05-08 07:38 | 59.54121 | 9.86862 | 24352 ft | 380 kts | 14° |
| 2026-05-08 07:38 | 59.56663 | 9.88284 | 23925 ft | 379 kts | 14° |
| 2026-05-08 07:39 | 59.59190 | 9.89703 | 23440 ft | 377 kts | 14° |
| 2026-05-08 07:39 | 59.61699 | 9.91117 | 22975 ft | 374 kts | 14° |
| 2026-05-08 07:39 | 59.64195 | 9.92522 | 22514 ft | 371 kts | 14° |
| 2026-05-08 07:39 | 59.66668 | 9.93914 | 22092 ft | 368 kts | 14° |
| 2026-05-08 07:40 | 59.69124 | 9.95296 | 21684 ft | 366 kts | 14° |
| 2026-05-08 07:40 | 59.71565 | 9.96663 | 21275 ft | 363 kts | 14° |
| 2026-05-08 07:40 | 59.73989 | 9.98026 | 20694 ft | 364 kts | 14° |
| 2026-05-08 07:40 | 59.76393 | 9.99403 | 20387 ft | 360 kts | 17° |
| 2026-05-08 07:41 | 59.78630 | 10.01555 | 19916 ft | 361 kts | 35° |
| 2026-05-08 07:41 | 59.80662 | 10.04590 | 19219 ft | 369 kts | 37° |
| 2026-05-08 07:41 | 59.82708 | 10.07744 | 18520 ft | 376 kts | 38° |
| 2026-05-08 07:41 | 59.84788 | 10.10979 | 17726 ft | 383 kts | 38° |
| 2026-05-08 07:42 | 59.86898 | 10.14261 | 16937 ft | 388 kts | 38° |
| 2026-05-08 07:42 | 59.89040 | 10.17589 | 16179 ft | 393 kts | 38° |
| 2026-05-08 07:42 | 59.91206 | 10.20941 | 15433 ft | 396 kts | 38° |
| 2026-05-08 07:42 | 59.93364 | 10.24272 | 14717 ft | 399 kts | 38° |
| 2026-05-08 07:43 | 59.95564 | 10.27671 | 14000 ft | 401 kts | 38° |
| 2026-05-08 07:43 | 59.97775 | 10.31092 | 13200 ft | 402 kts | 38° |
| 2026-05-08 07:43 | 59.99988 | 10.34528 | 12426 ft | 403 kts | 38° |
| 2026-05-08 07:43 | 60.02195 | 10.37968 | 11677 ft | 402 kts | 38° |
| 2026-05-08 07:44 | 60.04397 | 10.41405 | 11004 ft | 399 kts | 39° |
| 2026-05-08 07:44 | 60.06563 | 10.44797 | 10512 ft | 392 kts | 39° |
| 2026-05-08 07:44 | 60.08690 | 10.48133 | 10018 ft | 385 kts | 39° |
| 2026-05-08 07:44 | 60.10779 | 10.51410 | 9470 ft | 378 kts | 39° |
| 2026-05-08 07:45 | 60.12835 | 10.54632 | 8943 ft | 372 kts | 39° |
| 2026-05-08 07:45 | 60.14831 | 10.57761 | 8422 ft | 366 kts | 39° |
| 2026-05-08 07:45 | 60.16801 | 10.60859 | 7906 ft | 352 kts | 39° |
| 2026-05-08 07:45 | 60.18678 | 10.63826 | 7390 ft | 336 kts | 39° |
| 2026-05-08 07:46 | 60.20484 | 10.66689 | 6898 ft | 325 kts | 39° |
| 2026-05-08 07:46 | 60.22226 | 10.69453 | 6375 ft | 314 kts | 39° |
| 2026-05-08 07:46 | 60.23920 | 10.72135 | 5851 ft | 306 kts | 39° |
| 2026-05-08 07:46 | 60.25572 | 10.74765 | 5327 ft | 298 kts | 40° |
| 2026-05-08 07:47 | 60.27076 | 10.77530 | 4932 ft | 286 kts | 45° |
| 2026-05-08 07:47 | 60.28458 | 10.80230 | 4504 ft | 276 kts | 45° |
| 2026-05-08 07:47 | 60.29812 | 10.82885 | 4107 ft | 267 kts | 45° |
| 2026-05-08 07:47 | 60.31100 | 10.85395 | 4011 ft | 250 kts | 45° |
| 2026-05-08 07:48 | 60.32353 | 10.87784 | 4007 ft | 246 kts | 45° |
| 2026-05-08 07:48 | 60.33599 | 10.90137 | 4003 ft | 244 kts | 45° |
| 2026-05-08 07:48 | 60.34846 | 10.92476 | 4011 ft | 246 kts | 45° |
| 2026-05-08 07:48 | 60.36100 | 10.94832 | 4002 ft | 247 kts | 45° |
| 2026-05-08 07:49 | 60.37354 | 10.97198 | 4008 ft | 246 kts | 45° |
| 2026-05-08 07:49 | 60.38605 | 10.99559 | 4010 ft | 247 kts | 45° |
| 2026-05-08 07:49 | 60.39799 | 11.01974 | 3996 ft | 245 kts | 57° |
| 2026-05-08 07:49 | 60.40403 | 11.05073 | 4001 ft | 235 kts | 90° |
| 2026-05-08 07:50 | 60.40288 | 11.08317 | 4011 ft | 231 kts | 103° |
| 2026-05-08 07:50 | 60.40015 | 11.11463 | 4005 ft | 220 kts | 105° |
| 2026-05-08 07:50 | 60.39740 | 11.14457 | 3840 ft | 214 kts | 106° |
| 2026-05-08 07:50 | 60.39490 | 11.17317 | 3637 ft | 199 kts | 105° |
| 2026-05-08 07:51 | 60.39260 | 11.20014 | 3521 ft | 192 kts | 107° |
| 2026-05-08 07:51 | 60.38602 | 11.22133 | 3495 ft | 175 kts | 154° |
| 2026-05-08 07:51 | 60.37458 | 11.22361 | 3513 ft | 169 kts | 198° |
| 2026-05-08 07:51 | 60.36343 | 11.21583 | 3525 ft | 170 kts | 195° |
| 2026-05-08 07:52 | 60.35222 | 11.20986 | 3504 ft | 168 kts | 195° |
| 2026-05-08 07:52 | 60.34095 | 11.20357 | 3526 ft | 169 kts | 195° |
| 2026-05-08 07:52 | 60.32984 | 11.19718 | 3371 ft | 163 kts | 197° |
| 2026-05-08 07:52 | 60.31915 | 11.19097 | 3164 ft | 156 kts | 196° |
| 2026-05-08 07:53 | 60.30888 | 11.18501 | 2959 ft | 151 kts | 195° |
| 2026-05-08 07:53 | 60.29900 | 11.17926 | 2757 ft | 144 kts | 195° |
| 2026-05-08 07:53 | 60.28959 | 11.17377 | 2582 ft | 139 kts | 195° |
| 2026-05-08 07:53 | 60.28038 | 11.16843 | 2392 ft | 135 kts | 197° |
| 2026-05-08 07:54 | 60.27138 | 11.16320 | 2203 ft | 134 kts | 197° |
| 2026-05-08 07:54 | 60.26260 | 11.15810 | 2011 ft | 132 kts | 196° |
| 2026-05-08 07:54 | 60.25381 | 11.15299 | 1826 ft | 131 kts | 195° |
| 2026-05-08 07:54 | 60.24498 | 11.14787 | 1641 ft | 132 kts | 196° |
| 2026-05-08 07:55 | 60.23611 | 11.14273 | 1450 ft | 134 kts | 195° |
| 2026-05-08 07:55 | 60.22714 | 11.13753 | 1260 ft | 135 kts | 195° |
| 2026-05-08 07:55 | 60.21808 | 11.13226 | 1087 ft | 136 kts | 195° |
| 2026-05-08 07:55 | 60.20898 | 11.12693 | 919 ft | 136 kts | 195° |
| 2026-05-08 07:56 | 60.19991 | 11.12156 | 731 ft | 135 kts | 194° |
| 2026-05-08 07:56 | 60.19142 | 11.11674 | 683 ft | 101 kts | 194° |
| 2026-05-08 07:56 | 60.18730 | 11.11442 | 684 ft | 40 kts | 197° |
| 2026-05-08 07:56 | 60.18487 | 11.11246 | 683 ft | 33 kts | 223° |
| 2026-05-08 07:57 | 60.18447 | 11.11127 | 683 ft | 8 kts | 245° |
| 2026-05-08 07:57 | 60.18446 | 11.10985 | 680 ft | 13 kts | 288° |
| 2026-05-08 07:57 | 60.18473 | 11.10823 | 679 ft | 8 kts | 289° |
| 2026-05-08 07:57 | 60.18520 | 11.10766 | 682 ft | 9 kts | 1° |
| 2026-05-08 07:58 | 60.18593 | 11.10807 | 679 ft | 13 kts | 17° |
| 2026-05-08 07:58 | 60.18692 | 11.10870 | 679 ft | 17 kts | 16° |
| 2026-05-08 07:58 | 60.18819 | 11.10934 | 683 ft | 21 kts | 16° |
| 2026-05-08 07:58 | 60.18956 | 11.11014 | 680 ft | 17 kts | 16° |
| 2026-05-08 07:59 | 60.19069 | 11.11078 | 683 ft | 17 kts | 15° |
| 2026-05-08 07:59 | 60.19171 | 11.11137 | 684 ft | 14 kts | 16° |
| 2026-05-08 07:59 | 60.19258 | 11.11188 | 684 ft | 12 kts | 16° |
| 2026-05-08 07:59 | 60.19335 | 11.11234 | 684 ft | 11 kts | 15° |
| 2026-05-08 08:00 | 60.19400 | 11.11255 | 684 ft | 8 kts | 345° |
| 2026-05-08 08:00 | 60.19429 | 11.11159 | 683 ft | 8 kts | 285° |
| 2026-05-08 08:00 | 60.19444 | 11.11059 | 683 ft | 7 kts | 287° |
| 2026-05-08 08:00 | 60.19456 | 11.10977 | 683 ft | 6 kts | 285° |
| 2026-05-08 08:01 | 60.19473 | 11.10858 | 683 ft | 12 kts | 285° |
| 2026-05-08 08:01 | 60.19493 | 11.10710 | 681 ft | 11 kts | 286° |
| 2026-05-08 08:01 | 60.19503 | 11.10623 | 683 ft | 4 kts | 261° |
| 2026-05-08 08:01 | 60.19488 | 11.10597 | 682 ft | 3 kts | 211° |
| 2026-05-08 08:02 | 60.19458 | 11.10578 | 685 ft | 3 kts | 193° |
| 2026-05-08 08:02 | 60.19442 | 11.10570 | 681 ft | 3 kts | 194° |
| 2026-05-08 08:02 | 60.19413 | 11.10556 | 685 ft | 0 kts | 195° |
| 2026-05-08 08:02 | 60.19404 | 11.10550 | 683 ft | 1 kts | 199° |
| 2026-05-08 08:03 | 60.19402 | 11.10548 | 683 ft | 0 kts | 199° |